LYP weather

Faisalabad International Airport
Faisalabad, Punjab, Pakistan

Public forecast

Using degrees Celsius for public forecast. Weather courtesy of forecast.io.

Current aviation weather report (METAR) for Faisalabad International Airport

Report is more than 6 hours old.

Retrieved 2019/12/19 03:55 UTC (1 month ago):

OPFA 190355Z 13002KT 0150 FG VV/// 07/07 Q1021 BECMG 0200

Aviation forecast (TAF) for Faisalabad International Airport

Forecast is more than 12 hours old.

Retrieved 2019/05/15 18:21 UTC (9 months ago):

TAF TAF OPFA 151530Z 1518/1612 32004KT 4000 FU SCT040 SCT100 TX33/1610ZTN23/1600Z TEMPO 1522/1602 33010G25KT 1500 TSRA FEW030CB BKN040 OVC100 TEMPO 1608/1612 32010G25KT 2000 TSRA FEW030CB SCT040 BKN100